Time;durP1;ratioP1;P1;durP2;ratioP2;P2;SDS_P1;SDS_P2;PMS_P1;PMS_P2;Temp;Humidity;BMP_temperature;BMP_pressure;BME280_temperature;BME280_humidity;BME280_pressure;Samples;Min_cycle;Max_cycle;Signal;HPM_P1;HPM_P2
2022/02/14 00:01:40;;;;;;;1.80;0.10;;;;;;;19.72;41.05;100208.97;5012096;28;20033;-68
2022/02/14 00:04:05;;;;;;;0.50;0.08;;;;;;;19.76;41.73;100204.81;5020907;28;20473;-68
2022/02/14 00:06:31;;;;;;;0.57;0.10;;;;;;;19.74;41.76;100204.16;5031855;28;20025;-67
2022/02/14 00:08:56;;;;;;;1.35;0.10;;;;;;;19.69;40.26;100212.09;5031921;28;20017;-68
2022/02/14 00:11:24;;;;;;;0.40;0.08;;;;;;;19.65;41.54;100210.78;5032023;28;20025;-67
2022/02/14 00:13:52;;;;;;;0.70;0.20;;;;;;;19.64;41.22;100204.47;5035447;28;20028;-68
2022/02/14 00:16:18;;;;;;;0.75;0.10;;;;;;;19.64;41.88;100207.19;5035754;28;20033;-68
2022/02/14 00:18:43;;;;;;;0.55;0.10;;;;;;;19.62;40.92;100201.09;5035342;28;20041;-68
2022/02/14 00:21:09;;;;;;;1.60;0.10;;;;;;;19.61;41.40;100204.88;5035623;28;20025;-68
2022/02/14 00:23:34;;;;;;;1.65;0.30;;;;;;;19.57;41.70;100195.41;5035420;28;20114;-67
2022/02/14 00:25:59;;;;;;;0.45;0.20;;;;;;;19.63;41.46;100196.50;5035411;28;20021;-68
2022/02/14 00:28:25;;;;;;;1.25;0.30;;;;;;;19.55;41.34;100193.91;5035479;28;20040;-68
2022/02/14 00:30:50;;;;;;;0.10;0.10;;;;;;;19.55;40.71;100200.22;5035202;28;20116;-68
2022/02/14 00:33:15;;;;;;;0.20;0.10;;;;;;;19.55;41.86;100191.19;5035124;28;20040;-68
2022/02/14 00:35:41;;;;;;;0.15;0.00;;;;;;;19.52;40.16;100190.50;5017628;28;20032;-68
2022/02/14 00:38:06;;;;;;;0.35;0.10;;;;;;;19.48;41.35;100189.22;5035292;28;20021;-68
2022/02/14 00:40:31;;;;;;;0.20;0.03;;;;;;;19.48;41.59;100183.75;5035144;28;20030;-67
2022/02/14 00:42:57;;;;;;;0.20;0.17;;;;;;;19.47;42.01;100187.50;5035082;28;20040;-68
2022/02/14 00:45:22;;;;;;;1.25;0.10;;;;;;;19.43;40.83;100185.38;5035162;28;20037;-68
2022/02/14 00:47:48;;;;;;;0.28;0.20;;;;;;;19.49;41.09;100184.59;5034800;28;20065;-68
2022/02/14 00:50:13;;;;;;;0.85;0.20;;;;;;;19.46;42.04;100179.53;5035075;28;20024;-68
2022/02/14 00:52:40;;;;;;;0.10;0.10;;;;;;;19.42;41.84;100173.63;5043589;23;20067;-67
2022/02/14 00:55:08;;;;;;;0.63;0.17;;;;;;;19.39;41.25;100168.56;5053390;28;20048;-67
2022/02/14 00:57:34;;;;;;;0.52;0.28;;;;;;;19.38;40.65;100166.03;5054772;28;20492;-67
2022/02/14 00:59:59;;;;;;;0.95;0.20;;;;;;;19.39;41.93;100163.09;5054883;28;20068;-68
2022/02/14 01:02:25;;;;;;;0.73;0.28;;;;;;;19.39;41.50;100163.09;5054723;28;20048;-68
2022/02/14 01:04:50;;;;;;;1.35;0.10;;;;;;;19.39;41.00;100154.94;5067924;28;20476;-68
2022/02/14 01:07:15;;;;;;;0.03;0.00;;;;;;;19.38;41.71;100150.53;5074591;28;20024;-68
2022/02/14 01:09:42;;;;;;;0.40;0.10;;;;;;;19.36;41.44;100158.06;5074400;28;20423;-67
2022/02/14 01:12:08;;;;;;;0.17;0.00;;;;;;;19.36;40.84;100157.22;5074596;28;20024;-68
2022/02/14 01:14:33;;;;;;;0.00;0.00;;;;;;;19.35;41.10;100150.91;5074370;28;20024;-68
2022/02/14 01:16:58;;;;;;;1.45;0.10;;;;;;;19.33;41.78;100150.28;5074397;28;20487;-67
2022/02/14 01:19:25;;;;;;;0.52;0.10;;;;;;;19.34;42.14;100137.47;5074434;28;20022;-68
2022/02/14 01:21:50;;;;;;;0.10;0.10;;;;;;;19.31;42.16;100144.13;5074195;28;20032;-68
2022/02/14 01:24:15;;;;;;;1.23;0.10;;;;;;;19.34;41.51;100141.06;5073728;28;20032;-68
2022/02/14 01:26:42;;;;;;;0.50;0.10;;;;;;;19.32;42.13;100145.84;5074010;28;20024;-68
2022/02/14 01:29:07;;;;;;;0.32;0.10;;;;;;;19.30;41.28;100147.06;5074267;28;20550;-68
2022/02/14 01:31:33;;;;;;;1.27;0.03;;;;;;;19.30;41.34;100142.47;5074105;28;20115;-67
2022/02/14 01:33:58;;;;;;;1.10;0.00;;;;;;;19.29;41.71;100145.38;5064677;28;20401;-68
2022/02/14 01:36:23;;;;;;;0.57;0.10;;;;;;;19.28;41.46;100133.63;5054063;28;20376;-68
2022/02/14 01:38:49;;;;;;;0.38;0.15;;;;;;;19.31;42.27;100135.97;5053869;28;20032;-68
2022/02/14 01:41:14;;;;;;;0.10;0.00;;;;;;;19.29;41.58;100135.31;5054018;28;20233;-69
2022/02/14 01:43:40;;;;;;;1.02;0.30;;;;;;;19.26;41.74;100130.25;5053737;28;20024;-67
2022/02/14 01:46:05;;;;;;;0.25;0.10;;;;;;;19.26;41.48;100127.53;5054157;28;20021;-68
2022/02/14 01:48:31;;;;;;;0.20;0.00;;;;;;;19.28;42.59;100106.38;5053710;28;20031;-68
2022/02/14 01:50:56;;;;;;;0.03;0.00;;;;;;;19.26;41.59;100103.00;5053736;28;20039;-67
2022/02/14 01:53:23;;;;;;;0.00;0.00;;;;;;;19.25;42.01;100087.69;5053623;28;20033;-67
2022/02/14 01:55:50;;;;;;;0.05;0.00;;;;;;;19.23;41.90;100065.25;5053726;28;20025;-68
2022/02/14 01:58:16;;;;;;;0.35;0.10;;;;;;;19.23;41.76;100059.81;5053698;28;20032;-68
2022/02/14 02:00:41;;;;;;;0.32;0.10;;;;;;;19.20;41.47;100043.84;5053430;28;20063;-68
2022/02/14 02:03:07;;;;;;;1.38;0.30;;;;;;;19.21;41.15;100026.47;5055231;28;20263;-68
2022/02/14 02:05:32;;;;;;;1.00;0.13;;;;;;;19.18;41.83;100016.81;5054143;28;20029;-67
2022/02/14 02:07:58;;;;;;;1.15;0.17;;;;;;;19.21;41.06;100010.97;5053319;28;20032;-68
2022/02/14 02:10:25;;;;;;;0.00;0.00;;;;;;;19.23;42.47;99988.97;5053550;28;20427;-68
2022/02/14 02:12:54;;;;;;;1.65;0.10;;;;;;;19.19;41.92;99950.38;5053238;28;20358;-69
2022/02/14 02:15:20;;;;;;;0.10;0.10;;;;;;;19.15;41.39;99942.81;5053444;28;20025;-68
2022/02/14 02:17:45;;;;;;;0.75;0.15;;;;;;;19.17;42.30;99981.59;5052991;28;20048;-68
2022/02/14 02:20:13;;;;;;;0.63;0.20;;;;;;;19.18;41.57;100018.69;5053267;28;20399;-68
2022/02/14 02:22:40;;;;;;;0.95;0.20;;;;;;;19.18;41.99;100037.78;5053039;28;20037;-68
2022/02/14 02:25:06;;;;;;;0.10;0.10;;;;;;;19.19;41.76;100043.00;5035406;28;20037;-67
2022/02/14 02:27:31;;;;;;;1.42;0.10;;;;;;;19.17;41.82;100063.31;5034087;28;20021;-68
2022/02/14 02:30:04;;;;;;;0.20;0.00;;;;;;;19.18;41.53;100073.19;5041364;28;20037;-67
2022/02/14 02:32:31;;;;;;;0.82;0.10;;;;;;;19.14;41.25;100066.41;5053073;28;20028;-68
2022/02/14 02:34:57;;;;;;;1.10;0.10;;;;;;;19.14;42.47;100071.88;5052824;28;20349;-69
2022/02/14 02:37:23;;;;;;;0.28;0.00;;;;;;;19.15;41.45;100074.44;5052793;28;20023;-68
2022/02/14 02:39:48;;;;;;;0.63;0.10;;;;;;;19.13;41.72;100059.28;5052684;28;20490;-68
2022/02/14 02:42:16;;;;;;;0.52;0.00;;;;;;;19.12;42.63;100068.50;5052925;28;20029;-68
2022/02/14 02:44:43;;;;;;;0.63;0.20;;;;;;;19.11;41.56;100077.72;5052666;28;20480;-68
2022/02/14 02:47:11;;;;;;;0.22;0.05;;;;;;;19.12;41.76;100071.22;5052769;28;20025;-68
2022/02/14 02:49:36;;;;;;;0.40;0.20;;;;;;;19.14;41.68;100060.97;5052594;28;20063;-67
2022/02/14 02:52:04;;;;;;;0.63;0.10;;;;;;;19.13;41.67;100045.66;5053079;28;20048;-68
2022/02/14 02:54:30;;;;;;;0.20;0.17;;;;;;;19.12;41.41;100038.53;5052573;28;20041;-68
2022/02/14 02:56:55;;;;;;;0.20;0.20;;;;;;;19.09;41.75;100034.31;5049467;28;20204;-69
2022/02/14 02:59:22;;;;;;;0.73;0.10;;;;;;;19.11;42.09;100055.91;5052773;28;20036;-69
2022/02/14 03:01:47;;;;;;;0.60;0.17;;;;;;;19.12;41.63;100046.69;5051203;28;20380;-68
2022/02/14 03:04:14;;;;;;;0.40;0.10;;;;;;;19.07;41.06;100038.28;5052598;28;20405;-68
2022/02/14 03:06:40;;;;;;;1.05;0.00;;;;;;;19.06;41.24;100042.03;5052297;28;20028;-68
2022/02/14 03:09:06;;;;;;;0.32;0.10;;;;;;;19.06;41.17;100036.59;5052518;28;20039;-68
2022/02/14 03:11:32;;;;;;;0.57;0.10;;;;;;;19.08;42.02;100029.06;5051098;28;20063;-68
2022/02/14 03:13:57;;;;;;;0.15;0.00;;;;;;;19.09;42.04;100019.84;5052347;28;20029;-68
2022/02/14 03:16:24;;;;;;;0.68;0.20;;;;;;;19.01;42.00;100000.94;5052502;28;20469;-68
2022/02/14 03:18:50;;;;;;;0.00;0.00;;;;;;;19.05;41.79;99973.09;5052622;28;20029;-68
2022/02/14 03:21:16;;;;;;;0.30;0.00;;;;;;;19.05;41.50;99959.47;5052315;28;20028;-68
2022/02/14 03:23:41;;;;;;;0.98;0.10;;;;;;;19.07;41.98;99978.34;5052090;28;20029;-68
2022/02/14 03:26:07;;;;;;;1.48;0.20;;;;;;;19.04;41.81;99995.94;5052271;28;20029;-68
2022/02/14 03:28:33;;;;;;;0.85;0.55;;;;;;;19.05;41.84;99996.78;5034700;28;20049;-67
2022/02/14 03:30:59;;;;;;;0.05;0.03;;;;;;;19.05;41.65;100002.22;5032319;28;20477;-69
2022/02/14 03:33:25;;;;;;;0.75;0.03;;;;;;;19.03;41.21;99998.84;5032441;28;20030;-69
2022/02/14 03:35:50;;;;;;;0.43;0.10;;;;;;;19.04;41.69;99987.75;5032068;28;20377;-68
2022/02/14 03:38:16;;;;;;;0.73;0.10;;;;;;;19.01;41.83;99990.03;5032313;28;20041;-67
2022/02/14 03:40:42;;;;;;;0.00;0.00;;;;;;;19.01;42.17;99985.44;5032120;28;20381;-69
2022/02/14 03:43:08;;;;;;;0.13;0.10;;;;;;;19.03;41.36;99985.25;5032264;28;20067;-68
2022/02/14 03:45:34;;;;;;;0.65;0.10;;;;;;;19.02;42.42;99986.28;5030902;28;20035;-67
2022/02/14 03:48:00;;;;;;;1.05;0.10;;;;;;;19.03;41.76;99988.81;5034887;28;20025;-68
2022/02/14 03:50:26;;;;;;;0.43;0.10;;;;;;;18.99;41.52;99984.78;5036212;28;20038;-68
2022/02/14 03:52:51;;;;;;;0.68;0.20;;;;;;;19.01;42.22;99984.59;5035767;28;20038;-68
2022/02/14 03:55:17;;;;;;;0.43;0.43;;;;;;;18.99;42.37;99975.78;5036166;28;20040;-68
2022/02/14 03:57:43;;;;;;;0.57;0.20;;;;;;;19.01;42.76;99943.75;5043942;28;20021;-67
2022/02/14 04:00:11;;;;;;;1.08;0.20;;;;;;;19.00;42.43;99969.28;5039183;28;20364;-68
2022/02/14 04:02:37;;;;;;;0.10;0.03;;;;;;;18.98;41.96;99957.72;5054791;28;20548;-68
2022/02/14 04:05:03;;;;;;;0.57;0.30;;;;;;;19.03;42.80;99966.16;5055738;28;20476;-68
2022/02/14 04:07:29;;;;;;;0.57;0.20;;;;;;;19.01;41.81;99960.09;5054438;28;20029;-68
2022/02/14 04:09:55;;;;;;;0.45;0.10;;;;;;;19.00;41.58;99961.97;5055585;28;20537;-68
2022/02/14 04:12:20;;;;;;;0.75;0.10;;;;;;;18.97;41.82;99980.56;5055769;28;20028;-68
2022/02/14 04:14:46;;;;;;;0.30;0.00;;;;;;;18.96;42.17;99993.31;5055484;28;20021;-68
2022/02/14 04:17:11;;;;;;;0.28;0.00;;;;;;;18.94;42.08;99984.50;5055705;28;20056;-68
2022/02/14 04:19:36;;;;;;;0.47;0.10;;;;;;;18.99;41.75;99997.56;5055434;28;20033;-68
2022/02/14 04:22:02;;;;;;;0.20;0.13;;;;;;;18.99;42.75;99968.44;5055820;28;20062;-68
2022/02/14 04:24:27;;;;;;;1.15;0.15;;;;;;;18.92;42.46;99938.41;5055494;28;20021;-68
2022/02/14 04:26:52;;;;;;;0.40;0.10;;;;;;;18.96;42.57;99921.69;5049215;28;20021;-68
2022/02/14 04:29:18;;;;;;;0.82;0.50;;;;;;;18.97;42.52;99935.09;5035563;28;20057;-68
2022/02/14 04:31:43;;;;;;;1.13;0.20;;;;;;;18.96;41.47;99919.78;5035202;28;20030;-68
2022/02/14 04:34:08;;;;;;;1.10;0.40;;;;;;;18.99;42.31;99921.31;5035324;28;20511;-68
2022/02/14 04:36:34;;;;;;;1.27;0.20;;;;;;;18.93;41.53;99906.56;5035171;28;20024;-67
2022/02/14 04:38:59;;;;;;;0.93;0.10;;;;;;;18.93;42.36;99901.97;5035178;28;20027;-68
2022/02/14 04:41:24;;;;;;;0.32;0.30;;;;;;;18.90;41.80;99906.97;5035274;28;20021;-68
2022/02/14 04:43:51;;;;;;;1.05;0.08;;;;;;;18.92;42.54;99910.34;5034973;28;20502;-68
2022/02/14 04:46:18;;;;;;;0.25;0.25;;;;;;;18.92;42.75;99913.06;5035194;28;20105;-68
2022/02/14 04:48:44;;;;;;;0.38;0.08;;;;;;;18.93;41.75;99915.59;5034830;28;20470;-68
2022/02/14 04:51:09;;;;;;;1.05;0.00;;;;;;;18.96;42.60;99913.50;5035143;28;20116;-68
2022/02/14 04:53:34;;;;;;;0.05;0.03;;;;;;;18.94;42.44;99925.44;5034818;28;20393;-67
2022/02/14 04:55:59;;;;;;;0.00;0.00;;;;;;;18.88;42.50;99931.69;5034897;28;20031;-68
2022/02/14 04:58:26;;;;;;;1.70;0.30;;;;;;;18.97;42.51;99942.44;5052268;28;20053;-68
2022/02/14 05:00:52;;;;;;;0.32;0.08;;;;;;;19.50;41.86;99887.28;5047594;28;20262;-69
2022/02/14 05:03:17;;;;;;;0.13;0.00;;;;;;;20.25;40.77;99879.16;5034894;28;20025;-68
2022/02/14 05:05:43;;;;;;;0.30;0.10;;;;;;;20.51;39.33;99898.38;5034536;28;20449;-69
2022/02/14 05:08:08;;;;;;;0.30;0.20;;;;;;;20.73;39.01;99893.53;5034716;28;20021;-68
2022/02/14 05:10:33;;;;;;;0.35;0.10;;;;;;;20.85;39.18;99932.00;5034569;28;20017;-69
2022/02/14 05:12:58;;;;;;;0.77;0.10;;;;;;;20.96;38.93;99932.19;5034561;28;20063;-68
2022/02/14 05:15:24;;;;;;;0.30;0.10;;;;;;;21.08;38.84;99918.75;5034590;28;20358;-68
2022/02/14 05:17:49;;;;;;;0.40;0.20;;;;;;;21.15;38.01;99896.88;5034399;28;20017;-69
2022/02/14 05:20:14;;;;;;;1.13;0.20;;;;;;;21.18;39.09;99886.38;5034553;28;20471;-69
2022/02/14 05:22:39;;;;;;;0.15;0.00;;;;;;;21.22;38.70;99875.84;5034324;28;20025;-68
2022/02/14 05:25:05;;;;;;;0.85;0.20;;;;;;;21.28;38.68;99888.69;5034405;28;20457;-68
2022/02/14 05:27:31;;;;;;;0.60;0.10;;;;;;;21.34;38.87;99874.19;5046908;28;20078;-67
2022/02/14 05:29:56;;;;;;;0.22;0.17;;;;;;;21.37;39.46;99883.84;5054479;28;20051;-68
2022/02/14 05:32:21;;;;;;;0.13;0.00;;;;;;;21.39;39.63;99898.16;5054311;28;20465;-68
2022/02/14 05:34:46;;;;;;;0.20;0.00;;;;;;;21.39;39.45;99903.59;5053968;28;20028;-68
2022/02/14 05:37:12;;;;;;;0.22;0.10;;;;;;;21.45;39.90;99891.81;5054111;28;20017;-68
2022/02/14 05:39:37;;;;;;;0.30;0.00;;;;;;;21.47;39.22;99897.91;5053912;28;20017;-68
2022/02/14 05:42:03;;;;;;;0.47;0.08;;;;;;;21.49;39.37;99882.13;5054066;28;20020;-69
2022/02/14 05:44:28;;;;;;;0.75;0.10;;;;;;;21.57;39.32;99879.16;5053881;28;20518;-68
2022/02/14 05:46:53;;;;;;;0.10;0.10;;;;;;;21.60;39.07;99873.25;5053710;28;20294;-67
2022/02/14 05:49:19;;;;;;;0.20;0.00;;;;;;;21.57;39.08;99857.28;5053944;28;20113;-69
2022/02/14 05:51:44;;;;;;;0.10;0.10;;;;;;;21.63;39.05;99840.84;5052333;28;20032;-68
2022/02/14 05:54:09;;;;;;;0.10;0.10;;;;;;;21.62;39.27;99822.75;5053603;28;20045;-68
2022/02/14 05:56:35;;;;;;;0.17;0.10;;;;;;;21.67;39.25;99813.91;5048355;28;20424;-68
2022/02/14 05:59:00;;;;;;;0.47;0.20;;;;;;;21.68;39.46;99810.13;5033968;28;20014;-68
2022/02/14 06:01:26;;;;;;;0.10;0.00;;;;;;;21.70;38.74;99813.47;5037442;28;20067;-67
2022/02/14 06:03:52;;;;;;;0.80;0.10;;;;;;;21.75;39.49;99832.78;5053363;28;20433;-68
2022/02/14 06:06:17;;;;;;;0.52;0.10;;;;;;;21.71;39.69;99815.16;5053548;28;20021;-68
2022/02/14 06:08:42;;;;;;;0.88;0.10;;;;;;;21.74;39.40;99825.66;5053276;28;20025;-67
2022/02/14 06:11:08;;;;;;;0.82;0.05;;;;;;;21.76;39.39;99800.81;5053369;28;20017;-69
2022/02/14 06:13:33;;;;;;;0.15;0.00;;;;;;;21.76;39.51;99796.16;5053317;28;20404;-68
2022/02/14 06:15:58;;;;;;;0.17;0.00;;;;;;;21.78;39.29;99804.16;5053322;28;20060;-68
2022/02/14 06:18:24;;;;;;;0.75;0.10;;;;;;;21.77;39.61;99803.31;5052088;28;20017;-68
2022/02/14 06:20:49;;;;;;;0.95;0.00;;;;;;;21.86;39.22;99790.25;5053068;28;20021;-68
2022/02/14 06:23:14;;;;;;;0.00;0.00;;;;;;;21.95;38.36;99782.59;5051032;28;20476;-67
2022/02/14 06:25:40;;;;;;;0.15;0.15;;;;;;;21.95;38.30;99799.00;5033009;28;20032;-69
2022/02/14 06:28:06;;;;;;;1.55;0.20;;;;;;;21.84;39.99;99797.84;5052729;28;20037;-67
2022/02/14 06:30:31;;;;;;;1.02;0.00;;;;;;;21.86;39.60;99802.03;5053069;28;20052;-68
2022/02/14 06:32:57;;;;;;;0.28;0.10;;;;;;;21.89;39.02;99806.22;5053029;28;20078;-68
2022/02/14 06:35:22;;;;;;;1.20;0.20;;;;;;;21.98;38.21;99809.50;5053042;28;20032;-68
2022/02/14 06:37:48;;;;;;;0.10;0.05;;;;;;;21.92;38.90;99809.34;5052813;28;20021;-67
2022/02/14 06:40:14;;;;;;;0.15;0.10;;;;;;;21.97;39.05;99813.31;5052954;28;20031;-68
2022/02/14 06:42:39;;;;;;;0.10;0.00;;;;;;;21.93;39.06;99811.00;5052741;28;20291;-68
2022/02/14 06:45:05;;;;;;;0.63;0.10;;;;;;;21.89;39.01;99807.03;5052886;28;20024;-69
2022/02/14 06:47:30;;;;;;;0.20;0.00;;;;;;;21.97;38.74;99814.16;5052663;28;20024;-67
2022/02/14 06:49:56;;;;;;;0.28;0.10;;;;;;;21.97;39.03;99824.25;5052697;28;20103;-67
2022/02/14 06:52:21;;;;;;;0.22;0.10;;;;;;;21.98;39.50;99828.66;5052872;28;20024;-68
2022/02/14 06:54:46;;;;;;;0.30;0.30;;;;;;;22.02;38.91;99832.66;5052343;28;20553;-69
2022/02/14 06:57:12;;;;;;;0.65;0.08;;;;;;;22.03;39.18;99834.34;5051293;28;20068;-68
2022/02/14 06:59:37;;;;;;;0.13;0.10;;;;;;;22.06;38.75;99839.41;5052755;28;20025;-68
2022/02/14 07:02:03;;;;;;;0.25;0.00;;;;;;;22.07;38.43;99819.19;5051366;28;20025;-68
2022/02/14 07:04:28;;;;;;;0.05;0.00;;;;;;;22.21;38.27;99823.50;5050241;28;20490;-68
2022/02/14 07:06:53;;;;;;;0.00;0.00;;;;;;;22.12;39.36;99822.09;5031075;28;20029;-68
2022/02/14 07:09:18;;;;;;;1.73;0.17;;;;;;;22.07;38.99;99825.50;5032712;28;20029;-68
2022/02/14 07:11:44;;;;;;;0.10;0.05;;;;;;;22.07;39.01;99819.19;5032336;28;20021;-68
2022/02/14 07:14:13;;;;;;;0.22;0.00;;;;;;;22.08;38.94;99816.22;5032621;28;20109;-68
2022/02/14 07:16:38;;;;;;;0.30;0.00;;;;;;;22.10;39.04;99816.00;5032352;28;20026;-67
2022/02/14 07:19:03;;;;;;;0.75;0.15;;;;;;;22.17;38.90;99814.91;5032565;28;20059;-68
2022/02/14 07:21:29;;;;;;;0.10;0.00;;;;;;;22.10;38.75;99807.78;5032247;28;20025;-67
2022/02/14 07:23:54;;;;;;;0.85;0.05;;;;;;;22.09;39.60;99801.47;5032280;28;20025;-68
2022/02/14 07:26:20;;;;;;;0.43;0.10;;;;;;;22.15;38.39;99794.28;5037142;28;20033;-68
2022/02/14 07:28:46;;;;;;;0.20;0.05;;;;;;;22.09;38.64;99789.69;5052102;28;20061;-67
2022/02/14 07:31:13;;;;;;;1.85;0.10;;;;;;;22.11;38.76;99793.03;5052414;28;20460;-68
2022/02/14 07:33:39;;;;;;;0.40;0.10;;;;;;;22.11;39.01;99772.00;5052119;28;20021;-68
2022/02/14 07:36:05;;;;;;;0.98;0.20;;;;;;;22.12;38.55;99772.81;5052334;28;20385;-67
2022/02/14 07:38:31;;;;;;;0.28;0.10;;;;;;;22.20;39.01;99764.34;5052135;28;20403;-67
2022/02/14 07:40:56;;;;;;;0.28;0.00;;;;;;;22.22;38.65;99762.22;5052470;28;20104;-68
2022/02/14 07:43:23;;;;;;;0.05;0.00;;;;;;;22.16;38.68;99763.09;5052303;28;20452;-67
2022/02/14 07:45:48;;;;;;;0.32;0.13;;;;;;;22.18;38.43;99758.25;5052031;28;20026;-68
2022/02/14 07:48:13;;;;;;;0.75;0.10;;;;;;;22.14;39.44;99762.50;5052158;28;20025;-68
2022/02/14 07:50:39;;;;;;;0.03;0.00;;;;;;;22.13;38.99;99758.06;5051965;28;20475;-68
2022/02/14 07:53:04;;;;;;;0.15;0.10;;;;;;;22.26;38.37;99749.75;5050015;28;20037;-68
2022/02/14 07:55:29;;;;;;;0.30;0.00;;;;;;;22.22;38.79;99748.53;5051763;28;20033;-67
2022/02/14 07:57:55;;;;;;;0.60;0.20;;;;;;;22.20;38.61;99743.28;5051894;28;20021;-68
2022/02/14 08:00:22;;;;;;;0.57;0.10;;;;;;;22.15;39.01;99747.75;5052097;28;20033;-69
2022/02/14 08:02:48;;;;;;;0.45;0.10;;;;;;;22.14;39.02;99732.38;5051820;28;20040;-67
2022/02/14 08:05:13;;;;;;;0.20;0.00;;;;;;;22.23;38.57;99736.53;5051954;28;20017;-67
2022/02/14 08:07:39;;;;;;;0.63;0.10;;;;;;;22.16;38.71;99730.25;5050457;28;20021;-69
2022/02/14 08:10:04;;;;;;;0.20;0.10;;;;;;;22.26;39.21;99733.34;5052066;28;20484;-68
2022/02/14 08:12:30;;;;;;;0.20;0.10;;;;;;;22.23;38.69;99725.59;5051898;28;20029;-68
2022/02/14 08:14:55;;;;;;;0.55;0.00;;;;;;;22.23;39.39;99720.09;5050803;28;20035;-69
2022/02/14 08:17:21;;;;;;;0.13;0.00;;;;;;;22.21;39.05;99717.59;5050886;28;20056;-68
2022/02/14 08:19:46;;;;;;;0.35;0.10;;;;;;;22.17;39.24;99721.84;5050360;28;20423;-68
2022/02/14 08:22:11;;;;;;;0.22;0.05;;;;;;;22.22;38.95;99723.91;5046620;28;20040;-68
2022/02/14 08:24:36;;;;;;;0.60;0.10;;;;;;;22.23;39.19;99720.09;5031714;28;20036;-67
2022/02/14 08:27:05;;;;;;;0.47;0.13;;;;;;;22.27;38.71;99696.69;5031642;28;20061;-66
2022/02/14 08:29:31;;;;;;;0.13;0.10;;;;;;;22.34;38.73;99722.13;5030974;28;20354;-68
2022/02/14 08:31:56;;;;;;;0.25;0.00;;;;;;;22.31;38.50;99725.28;5031728;28;20044;-68
2022/02/14 08:34:22;;;;;;;0.30;0.10;;;;;;;22.23;39.02;99725.59;5033246;28;20033;-68
2022/02/14 08:36:48;;;;;;;0.30;0.00;;;;;;;22.34;38.50;99715.78;5035214;28;20501;-69
2022/02/14 08:39:14;;;;;;;0.65;0.10;;;;;;;22.33;38.82;99720.41;5035389;28;20025;-68
2022/02/14 08:41:41;;;;;;;0.15;0.03;;;;;;;22.23;38.50;99714.63;5035362;28;20026;-68
2022/02/14 08:44:07;;;;;;;0.38;0.10;;;;;;;22.18;38.61;99712.56;5034005;28;20392;-68
2022/02/14 08:46:33;;;;;;;0.28;0.05;;;;;;;22.24;39.07;99719.03;5035042;28;20022;-67
2022/02/14 08:48:59;;;;;;;0.45;0.28;;;;;;;22.27;38.84;99715.84;5035057;28;20021;-68
2022/02/14 08:51:24;;;;;;;0.10;0.00;;;;;;;22.31;38.58;99706.13;5035145;28;20385;-68
2022/02/14 08:53:50;;;;;;;0.15;0.03;;;;;;;22.34;39.33;99708.44;5052345;28;20049;-68
2022/02/14 08:56:16;;;;;;;0.15;0.00;;;;;;;22.26;39.15;99719.66;5054985;28;20025;-69
2022/02/14 08:58:42;;;;;;;0.30;0.20;;;;;;;22.31;37.85;99722.53;5054580;28;20021;-67
2022/02/14 09:01:09;;;;;;;0.30;0.00;;;;;;;22.25;39.37;99709.75;5053534;28;20025;-69
2022/02/14 09:03:34;;;;;;;0.20;0.20;;;;;;;22.32;38.99;99713.28;5054679;28;20487;-68
2022/02/14 09:06:00;;;;;;;0.47;0.10;;;;;;;22.33;38.80;99714.94;5054856;28;20332;-69
2022/02/14 09:08:26;;;;;;;0.20;0.10;;;;;;;22.32;38.99;99709.69;5054789;28;20031;-68
2022/02/14 09:10:53;;;;;;;0.63;0.20;;;;;;;22.24;38.78;99715.47;5045202;28;20025;-68
2022/02/14 09:13:18;;;;;;;0.32;0.20;;;;;;;22.30;38.45;99715.41;5038463;28;20353;-68
2022/02/14 09:15:44;;;;;;;0.10;0.10;;;;;;;22.31;39.44;99703.38;5029128;28;20033;-69
2022/02/14 09:18:10;;;;;;;0.50;0.10;;;;;;;22.34;38.70;99700.22;5013846;28;20435;-68
2022/02/14 09:20:36;;;;;;;0.00;0.00;;;;;;;22.33;39.46;99704.00;5013725;28;20026;-68
2022/02/14 09:23:02;;;;;;;0.05;0.00;;;;;;;22.30;38.65;99698.97;5043322;28;20033;-68
2022/02/14 09:25:28;;;;;;;0.80;0.13;;;;;;;22.33;38.56;99687.56;5054321;28;20039;-68
2022/02/14 09:27:54;;;;;;;1.27;0.63;;;;;;;22.32;38.96;99691.38;5054069;28;20120;-68
2022/02/14 09:30:20;;;;;;;0.30;0.03;;;;;;;22.38;38.70;99690.50;5054363;28;20488;-68
2022/02/14 09:32:45;;;;;;;0.85;0.30;;;;;;;22.44;38.46;99689.56;5050605;28;20133;-69
2022/02/14 09:35:11;;;;;;;0.10;0.00;;;;;;;22.39;38.11;99692.16;5033604;28;20028;-69
2022/02/14 09:37:36;;;;;;;0.20;0.10;;;;;;;22.38;38.88;99690.50;5034244;28;20036;-67
2022/02/14 09:40:04;;;;;;;0.10;0.10;;;;;;;22.38;39.07;99685.00;5033782;28;20030;-68
2022/02/14 09:42:29;;;;;;;0.10;0.00;;;;;;;22.35;38.51;99677.25;5033522;28;20025;-68
2022/02/14 09:44:54;;;;;;;0.30;0.00;;;;;;;22.37;38.47;99682.50;5032228;28;20081;-68
2022/02/14 09:47:24;;;;;;;0.40;0.10;;;;;;;22.38;38.97;99685.00;5020375;28;20026;-67
2022/02/14 09:49:49;;;;;;;0.10;0.10;;;;;;;22.49;38.85;99686.97;5015965;28;20037;-69
2022/02/14 09:52:14;;;;;;;0.15;0.15;;;;;;;22.37;38.39;99694.28;5026649;28;20036;-67
2022/02/14 09:54:40;;;;;;;0.10;0.05;;;;;;;22.37;38.75;99688.81;5038593;28;20116;-68
2022/02/14 09:57:05;;;;;;;1.55;0.28;;;;;;;22.38;38.50;99695.13;5031053;28;20033;-68
2022/02/14 09:59:30;;;;;;;0.03;0.03;;;;;;;22.39;39.09;99697.63;5031929;28;20075;-65
2022/02/14 10:01:56;;;;;;;0.28;0.08;;;;;;;22.39;38.89;99694.91;5024750;28;20117;-69
2022/02/14 10:04:22;;;;;;;0.52;0.20;;;;;;;22.41;38.34;99690.03;5026904;28;20029;-68
2022/02/14 10:06:48;;;;;;;0.40;0.10;;;;;;;22.42;37.95;99686.22;5042407;28;20479;-68
2022/02/14 10:09:19;;;;;;;0.17;0.10;;;;;;;22.44;38.97;99686.84;5030194;28;20049;-68
2022/02/14 10:12:05;;;;;;;0.55;0.10;;;;;;;22.36;38.78;99687.13;5039564;28;20100;-64
2022/02/14 10:14:31;;;;;;;0.05;0.00;;;;;;;22.32;38.91;99688.63;5031583;28;20025;-68
2022/02/14 10:17:06;;;;;;;0.13;0.10;;;;;;;22.38;38.59;99690.50;5033016;28;20516;-68
2022/02/14 10:19:35;;;;;;;0.10;0.00;;;;;;;22.43;38.67;99682.41;5033311;28;20060;-67
2022/02/14 10:22:06;;;;;;;1.70;0.60;;;;;;;22.38;39.19;99679.53;5031552;28;20060;-69
2022/02/14 10:24:40;;;;;;;0.68;0.20;;;;;;;22.33;39.84;99679.34;5031601;28;20413;-66
2022/02/14 10:27:07;;;;;;;0.32;0.10;;;;;;;22.34;39.41;99683.78;5031300;28;20075;-68
2022/02/14 10:29:33;;;;;;;0.10;0.10;;;;;;;22.44;39.45;99684.09;5028335;28;20057;-66
2022/02/14 10:32:15;;;;;;;1.10;0.30;;;;;;;22.50;38.77;99683.19;5027363;28;20057;-68
2022/02/14 10:34:42;;;;;;;0.85;0.38;;;;;;;22.56;37.48;99675.16;5040208;28;20021;-69
2022/02/14 10:37:13;;;;;;;0.28;0.10;;;;;;;22.44;39.18;99689.56;5019317;28;20026;-68
2022/02/14 10:39:40;;;;;;;0.30;0.10;;;;;;;22.48;38.76;99674.34;5021213;28;20389;-68
2022/02/14 10:42:07;;;;;;;0.03;0.00;;;;;;;22.49;39.11;99677.94;5028270;28;20064;-68
2022/02/14 10:47:21;;;;;;;0.05;0.05;;;;;;;22.42;38.55;99691.69;5024993;28;20084;-68
2022/02/14 10:50:07;;;;;;;0.00;0.00;;;;;;;22.47;37.48;99691.00;5031660;28;20406;-67
2022/02/14 10:52:37;;;;;;;0.30;0.10;;;;;;;22.54;39.11;99688.22;5026771;28;20026;-63
2022/02/14 10:55:07;;;;;;;0.70;0.10;;;;;;;22.50;38.77;99694.13;5031933;28;20036;-64
2022/02/14 10:57:35;;;;;;;0.28;0.10;;;;;;;22.44;40.60;99695.06;5033034;28;20025;-64
2022/02/14 11:00:30;;;;;;;0.10;0.10;;;;;;;22.49;39.93;99703.41;5033376;28;20029;-64
2022/02/14 11:02:58;;;;;;;0.95;0.20;;;;;;;22.50;40.65;99688.66;5028591;28;20041;-66
2022/02/14 11:05:25;;;;;;;0.75;0.20;;;;;;;22.48;40.61;99688.03;5027227;28;20072;-65
2022/02/14 11:07:50;;;;;;;0.88;0.30;;;;;;;22.47;40.63;99699.22;5019561;28;20021;-65
2022/02/14 11:10:17;;;;;;;0.32;0.10;;;;;;;22.46;40.93;99697.56;5028965;28;20103;-65
2022/02/14 11:12:59;;;;;;;0.65;0.20;;;;;;;22.52;40.71;99705.72;5026716;28;20446;-65
2022/02/14 11:15:26;;;;;;;1.27;0.20;;;;;;;22.47;40.46;99704.72;5038586;28;20456;-66
2022/02/14 11:18:00;;;;;;;1.45;0.32;;;;;;;22.45;41.18;99702.19;5034725;28;20121;-65
2022/02/14 11:20:26;;;;;;;0.45;0.13;;;;;;;22.50;40.62;99705.09;5050582;28;20032;-66
2022/02/14 11:22:54;;;;;;;0.70;0.20;;;;;;;22.50;40.89;99705.09;5052184;28;20385;-66
2022/02/14 11:25:36;;;;;;;0.60;0.10;;;;;;;22.50;40.35;99710.56;5043500;28;20026;-66
2022/02/14 11:28:12;;;;;;;1.17;0.25;;;;;;;22.54;41.19;99688.22;5023016;28;20514;-65
2022/02/14 11:30:38;;;;;;;0.95;0.10;;;;;;;22.51;41.06;99705.97;5044243;28;20031;-65